Airfield :







YOU CAN JOIN US ON...

 
LOGIN :

Register | Disclaimer

   EN    FR    IT 

 









Legend :    VFR   Marginal VFR   IFR   Intensive IFR   Very Intensive IFR
Visi :
Ceiling :
>= 8 km
>= 3000ft
5 to 8 km
1000 to 3000 ft
1500m to 5 km
500 to 1000 ft
800 to 1500m
200 to 500 ft
< 800m
< 200 ft
Symbols :   Thunderstorms  Fog  Heavy snow  Heavy precipitations  Wind > 20 kt






- Airport Elevation : 489 ft


KHUL - Houlton International

CURRENT METAR :
  • 180653Z AUTO 00000KT 10SM CLR M25/M28 A3049 RMK AO2 SLP339 T12501283

EXPIRED METARs :
  • 180553Z AUTO 00000KT 10SM CLR M24/M27 A3047 RMK AO2 SLP332 T12391267 11100 21244 53023
  • 180453Z AUTO 00000KT 10SM CLR M22/M25 A3044 RMK AO2 SLP322 T12171250 410111228

TAF KHUL
Valid from the 18 at 06:00 until the 19 at 06:00 UTC


180520Z 1806/1906 VRB02KT P6SM SCT250
FM181200 VRB02KT P6SM SCT110 OVC220
FM181600 16009KT P6SM BKN090 OVC150
FM181800 16011KT P6SM VCSH OVC050
FM182100 16013G22KT 2SM -SN OVC026
FM182300 16014G23KT 3/4SM -SN BLSN OVC012 WS020/17045KT
FM190400 17011KT 2SM -SN BR OVC006 WS020/18040KT



MET'MAP, your aeronautical weather chart ! - Copyright ORBIFLY December 2007 - Disclaimer

ORBIFLY MET'MAP TEAM :

Programming & Development : Alexandra Zaïnal
Concept & original design : Baudouin d'Aumeries
Assistance for programming : Marc-Olivier Méhu
Technical & hardware support : Manuel Goepfert

Contact : metmap@orbifly.com




SOURCES & CREDITS :

   NOAA